Kosrae, Federated States of Micronesia
Current Conditions -  °F | °C
As of 5:53 AM on Monday 26 Jan 2015 (Local Time) from PTTP Reporting Station
Overcast Overcast  
Wind Chill: 80°   Ceiling: 1800
Heat Index: 84°   Visibility: 15mi
Dew Point: 71°   Wind: 12mph
Humidity: 75%   Direction: 50°NE
Pressure: 29.85"   Gusts: NA
Location:  5.33°N, 163.03°E
Report Text: PTTP 251953Z 05010KT 15SM BKN018TCU OVC130 27/22 A2985 RMK PKWND 04030/06 SHRAB12E22 TCU ALQDS SLP108 T02670219
Loading
Personal Weather Stations






























Interactive Weather Map New forecast layout! Learn more

10-Day Weather Forecast

Advertisements
Track Severe Weather on mobile